sensor_id;sensor_type;location;lat;lon;timestamp;pressure;altitude;pressure_sealevel;temperature;humidity
78411;BME280;67706;51.074;-1.796;2024-02-23T00:00:01;98218.63;;;3.76;100.00
78411;BME280;67706;51.074;-1.796;2024-02-23T00:02:30;98213.44;;;3.74;100.00
78411;BME280;67706;51.074;-1.796;2024-02-23T00:04:57;98211.59;;;3.68;100.00
78411;BME280;67706;51.074;-1.796;2024-02-23T00:07:24;98202.41;;;3.69;100.00
78411;BME280;67706;51.074;-1.796;2024-02-23T00:09:52;98217.59;;;3.77;100.00
78411;BME280;67706;51.074;-1.796;2024-02-23T00:12:18;98205.25;;;3.81;100.00
78411;BME280;67706;51.074;-1.796;2024-02-23T00:14:45;98204.03;;;3.77;100.00
78411;BME280;67706;51.074;-1.796;2024-02-23T00:17:12;98200.53;;;3.70;100.00
78411;BME280;67706;51.074;-1.796;2024-02-23T00:19:38;98192.22;;;3.65;100.00
78411;BME280;67706;51.074;-1.796;2024-02-23T00:22:05;98190.72;;;3.69;100.00
78411;BME280;67706;51.074;-1.796;2024-02-23T00:24:31;98187.00;;;3.63;100.00
78411;BME280;67706;51.074;-1.796;2024-02-23T00:26:59;98185.53;;;3.67;100.00
78411;BME280;67706;51.074;-1.796;2024-02-23T00:29:26;98184.06;;;3.65;100.00
78411;BME280;67706;51.074;-1.796;2024-02-23T00:31:53;98177.38;;;3.67;100.00
78411;BME280;67706;51.074;-1.796;2024-02-23T00:34:19;98168.66;;;3.65;100.00
78411;BME280;67706;51.074;-1.796;2024-02-23T00:36:47;98165.28;;;3.70;100.00
78411;BME280;67706;51.074;-1.796;2024-02-23T00:39:14;98159.25;;;3.68;100.00
78411;BME280;67706;51.074;-1.796;2024-02-23T00:41:41;98166.53;;;3.67;100.00
78411;BME280;67706;51.074;-1.796;2024-02-23T00:44:08;98156.53;;;3.68;100.00
78411;BME280;67706;51.074;-1.796;2024-02-23T00:46:35;98158.47;;;3.61;100.00
78411;BME280;67706;51.074;-1.796;2024-02-23T00:49:01;98154.28;;;3.58;100.00
78411;BME280;67706;51.074;-1.796;2024-02-23T00:51:28;98155.13;;;3.59;100.00
78411;BME280;67706;51.074;-1.796;2024-02-23T00:53:55;98154.53;;;3.57;100.00
78411;BME280;67706;51.074;-1.796;2024-02-23T00:56:21;98139.91;;;3.64;100.00
78411;BME280;67706;51.074;-1.796;2024-02-23T00:58:48;98139.66;;;3.66;100.00
78411;BME280;67706;51.074;-1.796;2024-02-23T01:01:16;98132.53;;;3.71;100.00
78411;BME280;67706;51.074;-1.796;2024-02-23T01:03:43;98133.53;;;3.77;100.00
78411;BME280;67706;51.074;-1.796;2024-02-23T01:06:09;98121.81;;;3.83;100.00
78411;BME280;67706;51.074;-1.796;2024-02-23T01:08:36;98117.59;;;3.87;100.00
78411;BME280;67706;51.074;-1.796;2024-02-23T01:11:03;98121.75;;;3.89;100.00
78411;BME280;67706;51.074;-1.796;2024-02-23T01:13:29;98115.50;;;3.89;100.00
78411;BME280;67706;51.074;-1.796;2024-02-23T01:15:56;98111.66;;;3.96;100.00
78411;BME280;67706;51.074;-1.796;2024-02-23T01:18:24;98109.06;;;4.08;100.00
78411;BME280;67706;51.074;-1.796;2024-02-23T01:20:51;98088.19;;;4.09;100.00
78411;BME280;67706;51.074;-1.796;2024-02-23T01:23:17;98091.00;;;4.20;100.00
78411;BME280;67706;51.074;-1.796;2024-02-23T01:25:44;98089.19;;;4.32;100.00
78411;BME280;67706;51.074;-1.796;2024-02-23T01:28:11;98079.94;;;4.40;100.00
78411;BME280;67706;51.074;-1.796;2024-02-23T01:30:37;98081.34;;;4.42;100.00
78411;BME280;67706;51.074;-1.796;2024-02-23T01:33:04;98074.22;;;4.48;100.00
78411;BME280;67706;51.074;-1.796;2024-02-23T01:35:32;98074.44;;;4.64;100.00
78411;BME280;67706;51.074;-1.796;2024-02-23T01:37:59;98061.28;;;4.61;100.00
78411;BME280;67706;51.074;-1.796;2024-02-23T01:40:26;98075.03;;;4.66;100.00
78411;BME280;67706;51.074;-1.796;2024-02-23T01:43:00;98064.72;;;4.87;100.00
78411;BME280;67706;51.074;-1.796;2024-02-23T01:45:28;98070.03;;;4.81;100.00
78411;BME280;67706;51.074;-1.796;2024-02-23T01:47:54;98060.06;;;4.75;100.00
78411;BME280;67706;51.074;-1.796;2024-02-23T01:50:21;98059.19;;;4.81;100.00
78411;BME280;67706;51.074;-1.796;2024-02-23T01:52:50;98057.50;;;4.80;100.00
78411;BME280;67706;51.074;-1.796;2024-02-23T01:55:18;98042.97;;;4.75;100.00
78411;BME280;67706;51.074;-1.796;2024-02-23T01:57:45;98043.31;;;4.78;100.00
78411;BME280;67706;51.074;-1.796;2024-02-23T02:00:15;98043.09;;;4.80;100.00
78411;BME280;67706;51.074;-1.796;2024-02-23T02:02:43;98049.34;;;4.80;100.00
78411;BME280;67706;51.074;-1.796;2024-02-23T02:05:09;98048.75;;;4.78;100.00
78411;BME280;67706;51.074;-1.796;2024-02-23T02:07:36;98047.41;;;4.88;100.00
78411;BME280;67706;51.074;-1.796;2024-02-23T02:10:07;98048.63;;;5.03;100.00
78411;BME280;67706;51.074;-1.796;2024-02-23T02:12:34;98044.84;;;5.04;100.00
78411;BME280;67706;51.074;-1.796;2024-02-23T02:15:04;98047.06;;;5.25;100.00
78411;BME280;67706;51.074;-1.796;2024-02-23T02:17:30;98048.59;;;5.33;100.00
78411;BME280;67706;51.074;-1.796;2024-02-23T02:19:58;98056.91;;;5.38;100.00
78411;BME280;67706;51.074;-1.796;2024-02-23T02:22:25;98057.00;;;5.43;100.00
78411;BME280;67706;51.074;-1.796;2024-02-23T02:24:52;98053.09;;;5.39;100.00
78411;BME280;67706;51.074;-1.796;2024-02-23T02:27:20;98048.97;;;5.36;100.00
78411;BME280;67706;51.074;-1.796;2024-02-23T02:29:46;98044.25;;;5.43;100.00
78411;BME280;67706;51.074;-1.796;2024-02-23T02:32:16;98044.16;;;5.50;100.00
78411;BME280;67706;51.074;-1.796;2024-02-23T02:34:42;98043.47;;;5.54;100.00
78411;BME280;67706;51.074;-1.796;2024-02-23T02:37:09;98035.06;;;5.44;100.00
78411;BME280;67706;51.074;-1.796;2024-02-23T02:39:36;98041.53;;;5.43;100.00
78411;BME280;67706;51.074;-1.796;2024-02-23T02:42:02;98039.84;;;5.31;100.00
78411;BME280;67706;51.074;-1.796;2024-02-23T02:44:31;98031.56;;;5.26;100.00
78411;BME280;67706;51.074;-1.796;2024-02-23T02:46:57;98039.00;;;5.19;100.00
78411;BME280;67706;51.074;-1.796;2024-02-23T02:49:24;98053.63;;;5.18;100.00
78411;BME280;67706;51.074;-1.796;2024-02-23T02:51:51;98060.59;;;5.14;100.00
78411;BME280;67706;51.074;-1.796;2024-02-23T02:54:17;98061.06;;;5.11;100.00
78411;BME280;67706;51.074;-1.796;2024-02-23T02:56:44;98046.66;;;5.10;100.00
78411;BME280;67706;51.074;-1.796;2024-02-23T02:59:12;98050.75;;;5.01;100.00
78411;BME280;67706;51.074;-1.796;2024-02-23T03:01:40;98063.97;;;4.98;100.00
78411;BME280;67706;51.074;-1.796;2024-02-23T03:04:08;98065.47;;;4.94;100.00
78411;BME280;67706;51.074;-1.796;2024-02-23T03:06:34;98069.25;;;4.93;100.00
78411;BME280;67706;51.074;-1.796;2024-02-23T03:09:01;98064.72;;;4.87;100.00
78411;BME280;67706;51.074;-1.796;2024-02-23T03:11:28;98061.28;;;4.79;100.00
78411;BME280;67706;51.074;-1.796;2024-02-23T03:13:54;98057.59;;;4.74;100.00
78411;BME280;67706;51.074;-1.796;2024-02-23T03:16:21;98052.84;;;4.69;100.00
78411;BME280;67706;51.074;-1.796;2024-02-23T03:18:50;98066.88;;;4.66;100.00
78411;BME280;67706;51.074;-1.796;2024-02-23T03:21:16;98058.66;;;4.55;100.00
78411;BME280;67706;51.074;-1.796;2024-02-23T03:23:43;98061.69;;;4.65;100.00
78411;BME280;67706;51.074;-1.796;2024-02-23T03:26:10;98067.13;;;4.65;100.00
78411;BME280;67706;51.074;-1.796;2024-02-23T03:28:37;98065.75;;;4.56;100.00
78411;BME280;67706;51.074;-1.796;2024-02-23T03:31:03;98078.50;;;4.55;100.00
78411;BME280;67706;51.074;-1.796;2024-02-23T03:33:30;98074.19;;;4.66;100.00
78411;BME280;67706;51.074;-1.796;2024-02-23T03:35:58;98075.56;;;4.75;100.00
78411;BME280;67706;51.074;-1.796;2024-02-23T03:38:25;98080.50;;;4.78;100.00
78411;BME280;67706;51.074;-1.796;2024-02-23T03:40:52;98075.91;;;4.78;100.00
78411;BME280;67706;51.074;-1.796;2024-02-23T03:43:19;98078.03;;;4.76;100.00
78411;BME280;67706;51.074;-1.796;2024-02-23T03:45:45;98080.59;;;4.71;100.00
78411;BME280;67706;51.074;-1.796;2024-02-23T03:48:12;98074.13;;;4.72;100.00
78411;BME280;67706;51.074;-1.796;2024-02-23T03:50:39;98079.47;;;4.79;100.00
78411;BME280;67706;51.074;-1.796;2024-02-23T03:53:07;98073.34;;;4.83;100.00
78411;BME280;67706;51.074;-1.796;2024-02-23T03:55:33;98077.00;;;4.77;100.00
78411;BME280;67706;51.074;-1.796;2024-02-23T03:58:00;98088.22;;;4.81;100.00
78411;BME280;67706;51.074;-1.796;2024-02-23T04:00:26;98098.00;;;4.82;100.00
78411;BME280;67706;51.074;-1.796;2024-02-23T04:02:53;98106.66;;;4.91;100.00
78411;BME280;67706;51.074;-1.796;2024-02-23T04:05:20;98112.78;;;4.86;100.00
78411;BME280;67706;51.074;-1.796;2024-02-23T04:07:47;98113.19;;;4.90;100.00
78411;BME280;67706;51.074;-1.796;2024-02-23T04:10:15;98120.41;;;4.96;100.00
78411;BME280;67706;51.074;-1.796;2024-02-23T04:12:41;98117.16;;;4.87;100.00
78411;BME280;67706;51.074;-1.796;2024-02-23T04:15:09;98115.59;;;4.79;100.00
78411;BME280;67706;51.074;-1.796;2024-02-23T04:17:36;98113.78;;;4.73;100.00
78411;BME280;67706;51.074;-1.796;2024-02-23T04:20:06;98126.16;;;4.69;100.00
78411;BME280;67706;51.074;-1.796;2024-02-23T04:22:34;98113.47;;;4.63;100.00
78411;BME280;67706;51.074;-1.796;2024-02-23T04:25:01;98110.75;;;4.63;100.00
78411;BME280;67706;51.074;-1.796;2024-02-23T04:27:29;98107.44;;;4.61;100.00
78411;BME280;67706;51.074;-1.796;2024-02-23T04:29:56;98113.47;;;4.63;100.00
78411;BME280;67706;51.074;-1.796;2024-02-23T04:32:23;98111.44;;;4.59;100.00
78411;BME280;67706;51.074;-1.796;2024-02-23T04:34:49;98119.97;;;4.62;100.00
78411;BME280;67706;51.074;-1.796;2024-02-23T04:37:16;98120.34;;;4.66;100.00
78411;BME280;67706;51.074;-1.796;2024-02-23T04:39:43;98126.53;;;4.73;100.00
78411;BME280;67706;51.074;-1.796;2024-02-23T04:42:10;98128.06;;;4.69;100.00
78411;BME280;67706;51.074;-1.796;2024-02-23T04:44:38;98134.00;;;4.59;100.00
78411;BME280;67706;51.074;-1.796;2024-02-23T04:47:05;98132.63;;;4.50;100.00
78411;BME280;67706;51.074;-1.796;2024-02-23T04:49:31;98132.47;;;4.45;100.00
78411;BME280;67706;51.074;-1.796;2024-02-23T04:51:58;98133.56;;;4.62;100.00
78411;BME280;67706;51.074;-1.796;2024-02-23T04:54:24;98137.16;;;4.74;100.00
78411;BME280;67706;51.074;-1.796;2024-02-23T04:56:51;98137.09;;;4.81;100.00
78411;BME280;67706;51.074;-1.796;2024-02-23T04:59:18;98138.31;;;4.85;100.00
78411;BME280;67706;51.074;-1.796;2024-02-23T05:01:46;98141.00;;;4.85;100.00
78411;BME280;67706;51.074;-1.796;2024-02-23T05:04:13;98142.06;;;4.84;100.00
78411;BME280;67706;51.074;-1.796;2024-02-23T05:06:39;98144.94;;;4.89;100.00
78411;BME280;67706;51.074;-1.796;2024-02-23T05:09:07;98141.84;;;4.86;100.00
78411;BME280;67706;51.074;-1.796;2024-02-23T05:11:34;98128.13;;;4.80;100.00
78411;BME280;67706;51.074;-1.796;2024-02-23T05:14:01;98138.44;;;4.72;100.00
78411;BME280;67706;51.074;-1.796;2024-02-23T05:16:28;98144.03;;;4.77;100.00
78411;BME280;67706;51.074;-1.796;2024-02-23T05:18:56;98147.97;;;4.81;100.00
78411;BME280;67706;51.074;-1.796;2024-02-23T05:21:22;98138.69;;;4.70;100.00
78411;BME280;67706;51.074;-1.796;2024-02-23T05:23:51;98140.13;;;4.73;100.00
78411;BME280;67706;51.074;-1.796;2024-02-23T05:26:18;98145.91;;;4.76;100.00
78411;BME280;67706;51.074;-1.796;2024-02-23T05:28:44;98144.13;;;4.70;100.00
78411;BME280;67706;51.074;-1.796;2024-02-23T05:31:11;98147.25;;;4.67;100.00
78411;BME280;67706;51.074;-1.796;2024-02-23T05:33:37;98143.63;;;4.73;100.00
78411;BME280;67706;51.074;-1.796;2024-02-23T05:36:06;98131.81;;;4.68;100.00
78411;BME280;67706;51.074;-1.796;2024-02-23T05:38:33;98130.97;;;4.67;100.00
78411;BME280;67706;51.074;-1.796;2024-02-23T05:40:59;98132.41;;;4.70;100.00
78411;BME280;67706;51.074;-1.796;2024-02-23T05:43:26;98129.78;;;4.63;100.00
78411;BME280;67706;51.074;-1.796;2024-02-23T05:45:52;98127.66;;;4.65;100.00
78411;BME280;67706;51.074;-1.796;2024-02-23T05:48:22;98132.34;;;4.58;100.00
78411;BME280;67706;51.074;-1.796;2024-02-23T05:50:49;98133.03;;;4.54;100.00
78411;BME280;67706;51.074;-1.796;2024-02-23T05:53:17;98128.31;;;4.43;100.00
78411;BME280;67706;51.074;-1.796;2024-02-23T05:55:43;98129.47;;;4.35;100.00
78411;BME280;67706;51.074;-1.796;2024-02-23T05:58:10;98141.41;;;4.28;100.00
78411;BME280;67706;51.074;-1.796;2024-02-23T06:00:39;98144.75;;;4.30;100.00
78411;BME280;67706;51.074;-1.796;2024-02-23T06:03:05;98147.59;;;4.17;100.00
78411;BME280;67706;51.074;-1.796;2024-02-23T06:05:32;98152.31;;;4.21;100.00
78411;BME280;67706;51.074;-1.796;2024-02-23T06:07:58;98163.41;;;4.20;100.00
78411;BME280;67706;51.074;-1.796;2024-02-23T06:10:28;98165.41;;;4.31;100.00
78411;BME280;67706;51.074;-1.796;2024-02-23T06:12:54;98166.38;;;4.36;100.00
78411;BME280;67706;51.074;-1.796;2024-02-23T06:15:21;98172.28;;;4.33;100.00
78411;BME280;67706;51.074;-1.796;2024-02-23T06:17:48;98165.47;;;4.24;100.00
78411;BME280;67706;51.074;-1.796;2024-02-23T06:20:14;98173.31;;;4.32;100.00
78411;BME280;67706;51.074;-1.796;2024-02-23T06:22:41;98172.28;;;4.33;100.00
78411;BME280;67706;51.074;-1.796;2024-02-23T06:25:08;98178.59;;;4.27;100.00
78411;BME280;67706;51.074;-1.796;2024-02-23T06:27:37;98187.28;;;4.11;100.00
78411;BME280;67706;51.074;-1.796;2024-02-23T06:30:04;98179.31;;;4.16;100.00
78411;BME280;67706;51.074;-1.796;2024-02-23T06:32:31;98172.94;;;4.29;100.00
78411;BME280;67706;51.074;-1.796;2024-02-23T06:34:58;98178.31;;;4.35;100.00
78411;BME280;67706;51.074;-1.796;2024-02-23T06:37:24;98173.91;;;4.34;100.00
78411;BME280;67706;51.074;-1.796;2024-02-23T06:39:51;98177.34;;;4.23;100.00
78411;BME280;67706;51.074;-1.796;2024-02-23T06:42:20;98167.75;;;4.27;100.00
78411;BME280;67706;51.074;-1.796;2024-02-23T06:44:48;98170.00;;;4.30;100.00
78411;BME280;67706;51.074;-1.796;2024-02-23T06:47:15;98168.34;;;4.29;100.00
78411;BME280;67706;51.074;-1.796;2024-02-23T06:49:41;98158.22;;;4.18;100.00
78411;BME280;67706;51.074;-1.796;2024-02-23T06:52:08;98157.00;;;4.14;100.00
78411;BME280;67706;51.074;-1.796;2024-02-23T06:54:35;98167.41;;;4.17;100.00
78411;BME280;67706;51.074;-1.796;2024-02-23T06:57:02;98165.03;;;4.02;100.00
78411;BME280;67706;51.074;-1.796;2024-02-23T06:59:28;98169.47;;;3.97;100.00
78411;BME280;67706;51.074;-1.796;2024-02-23T07:01:56;98173.06;;;3.91;100.00
78411;BME280;67706;51.074;-1.796;2024-02-23T07:04:23;98174.22;;;3.77;100.00
78411;BME280;67706;51.074;-1.796;2024-02-23T07:06:50;98179.06;;;3.68;100.00
78411;BME280;67706;51.074;-1.796;2024-02-23T07:09:17;98175.47;;;3.74;100.00
78411;BME280;67706;51.074;-1.796;2024-02-23T07:11:44;98177.00;;;3.64;100.00
78411;BME280;67706;51.074;-1.796;2024-02-23T07:14:11;98178.69;;;3.58;100.00
78411;BME280;67706;51.074;-1.796;2024-02-23T07:16:40;98176.22;;;3.57;100.00
78411;BME280;67706;51.074;-1.796;2024-02-23T07:19:08;98182.09;;;3.54;100.00
78411;BME280;67706;51.074;-1.796;2024-02-23T07:21:35;98183.06;;;3.59;100.00
78411;BME280;67706;51.074;-1.796;2024-02-23T07:24:02;98184.06;;;3.65;100.00
78411;BME280;67706;51.074;-1.796;2024-02-23T07:26:29;98191.41;;;3.64;100.00
78411;BME280;67706;51.074;-1.796;2024-02-23T07:28:55;98193.09;;;3.59;100.00
78411;BME280;67706;51.074;-1.796;2024-02-23T07:31:22;98188.72;;;3.58;100.00
78411;BME280;67706;51.074;-1.796;2024-02-23T07:33:48;98200.38;;;3.58;100.00
78411;BME280;67706;51.074;-1.796;2024-02-23T07:36:17;98185.19;;;3.57;100.00
78411;BME280;67706;51.074;-1.796;2024-02-23T07:38:45;98184.56;;;3.55;100.00
78411;BME280;67706;51.074;-1.796;2024-02-23T07:41:11;98183.13;;;3.53;100.00
78411;BME280;67706;51.074;-1.796;2024-02-23T07:43:39;98184.00;;;3.47;100.00
78411;BME280;67706;51.074;-1.796;2024-02-23T07:46:05;98192.72;;;3.49;100.00
78411;BME280;67706;51.074;-1.796;2024-02-23T07:48:34;98192.13;;;3.47;100.00
78411;BME280;67706;51.074;-1.796;2024-02-23T07:51:02;98189.38;;;3.53;100.00
78411;BME280;67706;51.074;-1.796;2024-02-23T07:53:30;98190.59;;;3.57;100.00
78411;BME280;67706;51.074;-1.796;2024-02-23T07:55:58;98203.28;;;3.63;100.00
78411;BME280;67706;51.074;-1.796;2024-02-23T07:58:27;98203.84;;;3.72;100.00
78411;BME280;67706;51.074;-1.796;2024-02-23T08:00:53;98208.19;;;3.73;100.00
78411;BME280;67706;51.074;-1.796;2024-02-23T08:03:20;98202.34;;;3.76;100.00
78411;BME280;67706;51.074;-1.796;2024-02-23T08:05:46;98216.19;;;3.68;100.00
78411;BME280;67706;51.074;-1.796;2024-02-23T08:08:13;98212.00;;;3.65;100.00
78411;BME280;67706;51.074;-1.796;2024-02-23T08:10:41;98221.28;;;3.82;100.00
78411;BME280;67706;51.074;-1.796;2024-02-23T08:13:08;98234.81;;;3.89;100.00
78411;BME280;67706;51.074;-1.796;2024-02-23T08:15:36;98234.72;;;4.02;100.00
78411;BME280;67706;51.074;-1.796;2024-02-23T08:18:02;98240.41;;;4.25;100.00
78411;BME280;67706;51.074;-1.796;2024-02-23T08:20:29;98235.59;;;4.27;100.00
78411;BME280;67706;51.074;-1.796;2024-02-23T08:22:56;98232.31;;;4.43;100.00
78411;BME280;67706;51.074;-1.796;2024-02-23T08:25:22;98234.38;;;4.66;100.00
78411;BME280;67706;51.074;-1.796;2024-02-23T08:27:50;98233.09;;;4.68;100.00
78411;BME280;67706;51.074;-1.796;2024-02-23T08:30:17;98240.34;;;4.74;100.00
78411;BME280;67706;51.074;-1.796;2024-02-23T08:32:45;98246.41;;;4.76;100.00
78411;BME280;67706;51.074;-1.796;2024-02-23T08:35:12;98252.88;;;4.75;100.00
78411;BME280;67706;51.074;-1.796;2024-02-23T08:37:39;98247.00;;;4.78;100.00
78411;BME280;67706;51.074;-1.796;2024-02-23T08:40:08;98247.31;;;4.89;100.00
78411;BME280;67706;51.074;-1.796;2024-02-23T08:42:35;98234.25;;;4.97;100.00
78411;BME280;67706;51.074;-1.796;2024-02-23T08:45:03;98232.84;;;5.13;100.00
78411;BME280;67706;51.074;-1.796;2024-02-23T08:47:30;98236.84;;;5.10;100.00
78411;BME280;67706;51.074;-1.796;2024-02-23T08:49:57;98237.00;;;5.15;100.00
78411;BME280;67706;51.074;-1.796;2024-02-23T08:52:24;98229.28;;;5.12;100.00
78411;BME280;67706;51.074;-1.796;2024-02-23T08:54:51;98232.44;;;5.09;100.00
78411;BME280;67706;51.074;-1.796;2024-02-23T08:57:18;98232.00;;;5.12;100.00
78411;BME280;67706;51.074;-1.796;2024-02-23T08:59:45;98233.44;;;5.33;100.00
78411;BME280;67706;51.074;-1.796;2024-02-23T09:02:13;98235.47;;;5.37;100.00
78411;BME280;67706;51.074;-1.796;2024-02-23T09:04:40;98235.16;;;5.45;100.00
78411;BME280;67706;51.074;-1.796;2024-02-23T09:07:07;98226.66;;;5.72;100.00
78411;BME280;67706;51.074;-1.796;2024-02-23T09:09:33;98227.97;;;5.81;100.00
78411;BME280;67706;51.074;-1.796;2024-02-23T09:11:59;98232.94;;;6.02;100.00
78411;BME280;67706;51.074;-1.796;2024-02-23T09:14:26;98236.78;;;6.24;100.00
78411;BME280;67706;51.074;-1.796;2024-02-23T09:16:53;98234.28;;;6.22;100.00
78411;BME280;67706;51.074;-1.796;2024-02-23T09:19:21;98230.25;;;6.13;100.00
78411;BME280;67706;51.074;-1.796;2024-02-23T09:21:47;98230.72;;;6.10;100.00
78411;BME280;67706;51.074;-1.796;2024-02-23T09:24:14;98236.28;;;6.15;100.00
78411;BME280;67706;51.074;-1.796;2024-02-23T09:26:41;98233.94;;;6.19;100.00
78411;BME280;67706;51.074;-1.796;2024-02-23T09:29:07;98224.38;;;6.28;100.00
78411;BME280;67706;51.074;-1.796;2024-02-23T09:31:34;98226.50;;;6.37;100.00
78411;BME280;67706;51.074;-1.796;2024-02-23T09:34:00;98223.66;;;6.32;100.00
78411;BME280;67706;51.074;-1.796;2024-02-23T09:36:29;98222.59;;;6.91;100.00
78411;BME280;67706;51.074;-1.796;2024-02-23T09:38:56;98231.03;;;6.67;100.00
78411;BME280;67706;51.074;-1.796;2024-02-23T09:41:23;98233.50;;;6.57;100.00
78411;BME280;67706;51.074;-1.796;2024-02-23T09:43:50;98230.78;;;6.68;100.00
78411;BME280;67706;51.074;-1.796;2024-02-23T09:46:18;98229.38;;;6.66;100.00
78411;BME280;67706;51.074;-1.796;2024-02-23T09:48:45;98219.75;;;6.52;100.00
78411;BME280;67706;51.074;-1.796;2024-02-23T09:51:13;98225.81;;;6.65;100.00
78411;BME280;67706;51.074;-1.796;2024-02-23T09:53:42;98236.81;;;6.59;100.00
78411;BME280;67706;51.074;-1.796;2024-02-23T09:56:09;98239.53;;;6.35;100.00
78411;BME280;67706;51.074;-1.796;2024-02-23T09:58:37;98242.84;;;6.37;100.00
78411;BME280;67706;51.074;-1.796;2024-02-23T10:01:04;98237.97;;;6.28;100.00
78411;BME280;67706;51.074;-1.796;2024-02-23T10:03:31;98246.59;;;6.25;100.00
78411;BME280;67706;51.074;-1.796;2024-02-23T10:05:58;98247.34;;;6.32;100.00
78411;BME280;67706;51.074;-1.796;2024-02-23T10:08:26;98251.94;;;6.31;100.00
78411;BME280;67706;51.074;-1.796;2024-02-23T10:10:54;98255.84;;;6.35;100.00
78411;BME280;67706;51.074;-1.796;2024-02-23T10:13:22;98253.63;;;6.32;100.00
78411;BME280;67706;51.074;-1.796;2024-02-23T10:15:49;98250.75;;;6.27;100.00
78411;BME280;67706;51.074;-1.796;2024-02-23T10:18:16;98251.81;;;6.26;100.00
78411;BME280;67706;51.074;-1.796;2024-02-23T10:20:43;98258.94;;;6.39;100.00
78411;BME280;67706;51.074;-1.796;2024-02-23T10:23:10;98249.97;;;6.38;100.00
78411;BME280;67706;51.074;-1.796;2024-02-23T10:25:37;98254.06;;;6.41;100.00
78411;BME280;67706;51.074;-1.796;2024-02-23T10:28:06;98256.34;;;6.44;100.00
78411;BME280;67706;51.074;-1.796;2024-02-23T10:30:33;98261.69;;;6.62;100.00
78411;BME280;67706;51.074;-1.796;2024-02-23T10:33:00;98266.94;;;6.64;100.00
78411;BME280;67706;51.074;-1.796;2024-02-23T10:35:26;98265.03;;;6.76;100.00
78411;BME280;67706;51.074;-1.796;2024-02-23T10:37:54;98254.47;;;6.79;100.00
78411;BME280;67706;51.074;-1.796;2024-02-23T10:40:21;98268.72;;;6.93;100.00
78411;BME280;67706;51.074;-1.796;2024-02-23T10:42:49;98273.56;;;7.02;100.00
78411;BME280;67706;51.074;-1.796;2024-02-23T10:45:21;98274.38;;;7.14;100.00
78411;BME280;67706;51.074;-1.796;2024-02-23T10:47:48;98281.16;;;7.12;100.00
78411;BME280;67706;51.074;-1.796;2024-02-23T10:50:15;98275.22;;;7.15;100.00
78411;BME280;67706;51.074;-1.796;2024-02-23T10:52:43;98277.94;;;7.15;100.00
78411;BME280;67706;51.074;-1.796;2024-02-23T10:55:10;98271.88;;;7.36;100.00
78411;BME280;67706;51.074;-1.796;2024-02-23T10:57:37;98273.38;;;7.55;100.00
78411;BME280;67706;51.074;-1.796;2024-02-23T11:00:07;98270.00;;;7.65;100.00
78411;BME280;67706;51.074;-1.796;2024-02-23T11:02:40;98274.53;;;7.59;100.00
78411;BME280;67706;51.074;-1.796;2024-02-23T11:05:08;98279.03;;;7.65;100.00
78411;BME280;67706;51.074;-1.796;2024-02-23T11:07:38;98280.06;;;7.76;100.00
78411;BME280;67706;51.074;-1.796;2024-02-23T11:10:06;98278.38;;;7.86;100.00
78411;BME280;67706;51.074;-1.796;2024-02-23T11:12:34;98281.50;;;7.67;100.00
78411;BME280;67706;51.074;-1.796;2024-02-23T11:15:02;98271.69;;;7.54;100.00
78411;BME280;67706;51.074;-1.796;2024-02-23T11:17:30;98272.28;;;7.68;100.00
78411;BME280;67706;51.074;-1.796;2024-02-23T11:20:03;98267.25;;;7.76;100.00
78411;BME280;67706;51.074;-1.796;2024-02-23T11:22:31;98271.63;;;7.77;100.00
78411;BME280;67706;51.074;-1.796;2024-02-23T11:25:00;98265.91;;;7.62;100.00
78411;BME280;67706;51.074;-1.796;2024-02-23T11:27:31;98268.63;;;7.62;100.00
78411;BME280;67706;51.074;-1.796;2024-02-23T11:30:05;98276.09;;;7.55;100.00
78411;BME280;67706;51.074;-1.796;2024-02-23T11:32:37;98274.53;;;7.59;100.00
78411;BME280;67706;51.074;-1.796;2024-02-23T11:35:08;98255.41;;;7.71;100.00
78411;BME280;67706;51.074;-1.796;2024-02-23T11:37:47;98272.53;;;7.94;100.00
78411;BME280;67706;51.074;-1.796;2024-02-23T11:40:14;98267.63;;;8.08;100.00
78411;BME280;67706;51.074;-1.796;2024-02-23T11:42:41;98261.13;;;7.97;100.00
78411;BME280;67706;51.074;-1.796;2024-02-23T11:45:09;98262.13;;;7.91;100.00
78411;BME280;67706;51.074;-1.796;2024-02-23T11:47:36;98266.78;;;8.08;100.00
78411;BME280;67706;51.074;-1.796;2024-02-23T11:50:03;98258.44;;;7.86;100.00
78411;BME280;67706;51.074;-1.796;2024-02-23T11:52:32;98257.91;;;8.00;100.00
78411;BME280;67706;51.074;-1.796;2024-02-23T11:54:59;98262.50;;;8.12;100.00
78411;BME280;67706;51.074;-1.796;2024-02-23T11:57:26;98256.69;;;8.08;100.00
78411;BME280;67706;51.074;-1.796;2024-02-23T11:59:52;98248.69;;;8.18;100.00
78411;BME280;67706;51.074;-1.796;2024-02-23T12:02:19;98247.13;;;8.50;100.00
78411;BME280;67706;51.074;-1.796;2024-02-23T12:04:46;98236.94;;;8.62;100.00
78411;BME280;67706;51.074;-1.796;2024-02-23T12:07:12;98238.22;;;8.76;100.00
78411;BME280;67706;51.074;-1.796;2024-02-23T12:09:40;98237.97;;;8.61;100.00
78411;BME280;67706;51.074;-1.796;2024-02-23T12:12:07;98239.25;;;8.54;100.00
78411;BME280;67706;51.074;-1.796;2024-02-23T12:14:35;98234.41;;;8.28;100.00
78411;BME280;67706;51.074;-1.796;2024-02-23T12:17:02;98239.88;;;8.44;100.00
78411;BME280;67706;51.074;-1.796;2024-02-23T12:19:31;98228.31;;;8.70;100.00
78411;BME280;67706;51.074;-1.796;2024-02-23T12:22:00;98228.47;;;8.80;100.00
78411;BME280;67706;51.074;-1.796;2024-02-23T12:24:26;98225.16;;;8.78;100.00
78411;BME280;67706;51.074;-1.796;2024-02-23T12:26:55;98223.81;;;8.81;100.00
78411;BME280;67706;51.074;-1.796;2024-02-23T12:29:22;98218.22;;;8.54;100.00
78411;BME280;67706;51.074;-1.796;2024-02-23T12:31:49;98217.88;;;8.51;100.00
78411;BME280;67706;51.074;-1.796;2024-02-23T12:34:16;98217.44;;;8.59;100.00
78411;BME280;67706;51.074;-1.796;2024-02-23T12:36:43;98223.91;;;8.53;100.00
78411;BME280;67706;51.074;-1.796;2024-02-23T12:39:12;98220.94;;;8.54;100.00
78411;BME280;67706;51.074;-1.796;2024-02-23T12:41:39;98226.47;;;8.59;100.00
78411;BME280;67706;51.074;-1.796;2024-02-23T12:44:07;98214.06;;;8.52;100.00
78411;BME280;67706;51.074;-1.796;2024-02-23T12:46:33;98200.25;;;8.58;100.00
78411;BME280;67706;51.074;-1.796;2024-02-23T12:49:00;98210.59;;;8.73;100.00